createdAt,value
2022-12-14T00:01:27.663Z,17.69
2022-12-14T00:03:53.980Z,17.67
2022-12-14T00:06:20.189Z,17.64
2022-12-14T00:08:46.398Z,17.61
2022-12-14T00:11:12.578Z,17.59
2022-12-14T00:13:38.732Z,17.57
2022-12-14T00:16:04.934Z,17.57
2022-12-14T00:18:31.115Z,17.56
2022-12-14T00:20:59.740Z,17.56
2022-12-14T00:23:25.958Z,17.54
2022-12-14T00:25:52.117Z,17.52
2022-12-14T00:28:18.281Z,17.52
2022-12-14T00:30:44.555Z,17.54
2022-12-14T00:33:10.792Z,17.57
2022-12-14T00:35:36.990Z,17.61
2022-12-14T00:38:03.331Z,17.62
2022-12-14T00:40:29.542Z,17.65
2022-12-14T00:42:55.827Z,17.67
2022-12-14T00:45:22.041Z,17.70
2022-12-14T00:47:48.233Z,17.74
2022-12-14T00:50:14.740Z,17.78
2022-12-14T00:52:40.927Z,17.79
2022-12-14T00:55:07.096Z,17.81
2022-12-14T00:57:33.348Z,17.84
2022-12-14T00:59:59.694Z,17.85
2022-12-14T01:02:25.992Z,17.87
2022-12-14T01:04:52.270Z,17.91
2022-12-14T01:07:18.466Z,17.92
2022-12-14T01:09:44.747Z,17.96
2022-12-14T01:12:10.997Z,17.96
2022-12-14T01:14:37.188Z,17.98
2022-12-14T01:17:03.406Z,18.02
2022-12-14T01:19:29.641Z,18.04
2022-12-14T01:21:55.858Z,18.04
2022-12-14T01:24:22.093Z,18.03
2022-12-14T01:26:48.342Z,18.03
2022-12-14T01:29:14.645Z,18.02
2022-12-14T01:31:41.023Z,18.01
2022-12-14T01:34:07.321Z,17.98
2022-12-14T01:36:33.549Z,17.95
2022-12-14T01:38:59.769Z,17.92
2022-12-14T01:41:25.977Z,17.88
2022-12-14T01:43:52.185Z,17.86
2022-12-14T01:46:18.399Z,17.84
2022-12-14T01:48:44.622Z,17.83
2022-12-14T01:51:10.973Z,17.81
2022-12-14T01:53:37.419Z,17.79
2022-12-14T01:56:03.649Z,17.76
2022-12-14T01:58:29.926Z,17.75
2022-12-14T02:00:56.149Z,17.72
2022-12-14T02:03:22.767Z,17.69
2022-12-14T02:05:48.995Z,17.68
2022-12-14T02:08:15.236Z,17.66
2022-12-14T02:10:41.455Z,17.64
2022-12-14T02:13:07.777Z,17.63
2022-12-14T02:15:33.996Z,17.62
2022-12-14T02:18:00.201Z,17.62
2022-12-14T02:20:26.407Z,17.65
2022-12-14T02:22:52.721Z,17.68
2022-12-14T02:25:18.897Z,17.72
2022-12-14T02:27:45.093Z,17.75
2022-12-14T02:30:11.368Z,17.81
2022-12-14T02:32:37.562Z,17.84
2022-12-14T02:35:03.775Z,17.86
2022-12-14T02:37:29.954Z,17.88
2022-12-14T02:39:56.166Z,17.93
2022-12-14T02:42:25.480Z,17.96
2022-12-14T02:44:51.680Z,17.97
2022-12-14T02:47:17.877Z,18.01
2022-12-14T02:49:44.114Z,18.03
2022-12-14T02:52:15.776Z,18.06
2022-12-14T02:54:42.072Z,18.05
2022-12-14T02:57:08.273Z,18.06
2022-12-14T02:59:34.645Z,18.06
2022-12-14T03:02:00.912Z,18.06
2022-12-14T03:04:27.213Z,18.07
2022-12-14T03:06:53.453Z,18.06
2022-12-14T03:09:19.664Z,18.03
2022-12-14T03:11:45.931Z,18.01
2022-12-14T03:14:12.145Z,17.98
2022-12-14T03:16:38.369Z,17.97
2022-12-14T03:19:04.603Z,17.95
2022-12-14T03:21:30.771Z,17.90
2022-12-14T03:23:57.153Z,17.89
2022-12-14T03:26:23.368Z,17.87
2022-12-14T03:28:49.597Z,17.83
2022-12-14T03:31:15.809Z,17.82
2022-12-14T03:33:42.051Z,17.79
2022-12-14T03:36:08.238Z,17.76
2022-12-14T03:38:34.417Z,17.75
2022-12-14T03:41:00.600Z,17.75
2022-12-14T03:43:27.264Z,17.74
2022-12-14T03:45:53.776Z,17.73
2022-12-14T03:48:20.159Z,17.73
2022-12-14T03:50:46.540Z,17.71
2022-12-14T03:53:12.742Z,17.68
2022-12-14T03:55:38.947Z,17.67
2022-12-14T03:58:05.148Z,17.65
2022-12-14T04:00:31.374Z,17.63
2022-12-14T04:02:57.599Z,17.62
2022-12-14T04:05:27.056Z,17.58
2022-12-14T04:07:53.328Z,17.53
2022-12-14T04:10:19.553Z,17.44
2022-12-14T04:12:51.066Z,17.34
2022-12-14T04:15:17.681Z,17.25
2022-12-14T04:17:43.900Z,17.14
2022-12-14T04:20:10.243Z,17.05
2022-12-14T04:22:36.474Z,16.96
2022-12-14T04:25:02.664Z,16.89
2022-12-14T04:27:29.002Z,16.86
2022-12-14T04:29:55.216Z,16.88
2022-12-14T04:32:21.446Z,16.93
2022-12-14T04:34:48.003Z,16.99
2022-12-14T04:37:14.221Z,17.05
2022-12-14T04:39:40.454Z,17.10
2022-12-14T04:42:06.614Z,17.16
2022-12-14T04:44:32.841Z,17.21
2022-12-14T04:46:59.053Z,17.29
2022-12-14T04:49:25.239Z,17.38
2022-12-14T04:51:51.424Z,17.47
2022-12-14T04:54:17.630Z,17.54
2022-12-14T04:56:43.813Z,17.64
2022-12-14T04:59:10.021Z,17.70
2022-12-14T05:01:36.645Z,17.74
2022-12-14T05:04:02.940Z,17.77
2022-12-14T05:06:29.161Z,17.83
2022-12-14T05:08:55.352Z,17.85
2022-12-14T05:11:51.871Z,17.88
2022-12-14T05:14:07.750Z,17.88
2022-12-14T05:16:33.934Z,17.89
2022-12-14T05:19:00.186Z,17.91
2022-12-14T05:21:26.480Z,17.91
2022-12-14T05:23:52.710Z,17.92
2022-12-14T05:26:19.022Z,17.91
2022-12-14T05:28:50.257Z,17.94
2022-12-14T05:31:16.950Z,17.97
2022-12-14T05:33:43.171Z,18.02
2022-12-14T05:36:09.388Z,18.04
2022-12-14T05:38:35.591Z,18.06
2022-12-14T05:41:01.866Z,17.94
2022-12-14T05:43:28.220Z,18.06
2022-12-14T05:45:54.919Z,18.03
2022-12-14T05:48:21.157Z,18.02
2022-12-14T05:50:47.379Z,18.03
2022-12-14T05:53:13.580Z,18.00
2022-12-14T05:55:39.827Z,17.97
2022-12-14T05:58:06.013Z,17.95
2022-12-14T06:00:32.295Z,17.91
2022-12-14T06:02:58.495Z,17.87
2022-12-14T06:05:24.771Z,17.84
2022-12-14T06:07:51.106Z,17.83
2022-12-14T06:10:17.304Z,17.81
2022-12-14T06:12:43.567Z,17.79
2022-12-14T06:15:09.760Z,17.76
2022-12-14T06:17:36.039Z,17.75
2022-12-14T06:20:02.249Z,17.74
2022-12-14T06:22:28.448Z,17.71
2022-12-14T06:24:54.661Z,17.69
2022-12-14T06:27:21.047Z,17.69
2022-12-14T06:29:47.231Z,17.67
2022-12-14T06:32:13.461Z,17.64
2022-12-14T06:34:42.297Z,17.64
2022-12-14T06:37:08.872Z,17.63
2022-12-14T06:39:35.185Z,17.62
2022-12-14T06:42:01.426Z,17.60
2022-12-14T06:44:27.598Z,17.58
2022-12-14T06:46:53.889Z,17.57
2022-12-14T06:49:20.116Z,17.56
2022-12-14T06:51:46.325Z,17.55
2022-12-14T06:54:13.691Z,17.53
2022-12-14T06:56:39.983Z,17.53
2022-12-14T06:59:06.153Z,17.55
2022-12-14T07:01:32.441Z,17.56
2022-12-14T07:03:58.742Z,17.53
2022-12-14T07:06:24.967Z,17.49
2022-12-14T07:08:51.142Z,17.45
2022-12-14T07:11:17.333Z,17.40
2022-12-14T07:13:43.579Z,17.36
2022-12-14T07:16:09.829Z,17.38
2022-12-14T07:18:36.136Z,17.41
2022-12-14T07:21:02.416Z,17.35
2022-12-14T07:23:28.637Z,17.53
2022-12-14T07:25:54.899Z,17.58
2022-12-14T07:28:21.112Z,17.66
2022-12-14T07:30:47.313Z,17.75
2022-12-14T07:33:13.521Z,17.81
2022-12-14T07:35:39.767Z,17.89
2022-12-14T07:38:06.184Z,17.97
2022-12-14T07:40:32.432Z,18.04
2022-12-14T07:42:58.609Z,18.11
2022-12-14T07:45:24.831Z,18.19
2022-12-14T07:47:51.037Z,18.25
2022-12-14T07:50:17.200Z,18.26
2022-12-14T07:52:43.413Z,18.28
2022-12-14T07:55:09.741Z,18.27
2022-12-14T07:57:35.974Z,18.27
2022-12-14T08:00:02.200Z,18.24
2022-12-14T08:02:28.545Z,18.20
2022-12-14T08:04:54.837Z,18.18
2022-12-14T08:07:21.025Z,18.17
2022-12-14T08:09:47.211Z,18.17
2022-12-14T08:12:13.470Z,18.16
2022-12-14T08:14:39.793Z,18.15
2022-12-14T08:17:06.059Z,18.16
2022-12-14T08:19:32.281Z,18.14
2022-12-14T08:21:58.573Z,18.12
2022-12-14T08:24:24.802Z,18.10
2022-12-14T08:26:51.129Z,18.11
2022-12-14T08:29:17.387Z,18.09
2022-12-14T08:31:43.688Z,18.08
2022-12-14T08:34:10.058Z,17.94
2022-12-14T08:36:36.327Z,18.06
2022-12-14T08:39:02.527Z,18.07
2022-12-14T08:41:28.750Z,18.07
2022-12-14T08:43:54.989Z,18.07
2022-12-14T08:46:21.276Z,18.06
2022-12-14T08:48:47.474Z,18.06
2022-12-14T08:51:13.744Z,18.06
2022-12-14T08:53:40.148Z,18.07
2022-12-14T08:56:06.372Z,18.07
2022-12-14T08:58:32.577Z,18.08
2022-12-14T09:00:58.785Z,18.08
2022-12-14T09:03:25.028Z,18.07
2022-12-14T09:05:51.219Z,18.08
2022-12-14T09:08:19.744Z,18.07
2022-12-14T09:10:47.138Z,18.06
2022-12-14T09:13:13.393Z,18.06
2022-12-14T09:15:39.754Z,18.04
2022-12-14T09:18:06.011Z,18.05
2022-12-14T09:20:32.237Z,18.06
2022-12-14T09:22:58.424Z,18.06
2022-12-14T09:25:24.597Z,18.08
2022-12-14T09:27:50.798Z,18.07
2022-12-14T09:30:20.426Z,18.08
2022-12-14T09:32:50.828Z,18.10
2022-12-14T09:35:17.102Z,18.12
2022-12-14T09:37:43.357Z,18.12
2022-12-14T09:40:09.586Z,18.15
2022-12-14T09:42:35.854Z,18.15
2022-12-14T09:45:02.138Z,18.14
2022-12-14T09:47:28.330Z,18.14
2022-12-14T09:49:54.778Z,18.15
2022-12-14T09:52:20.974Z,18.16
2022-12-14T09:54:50.098Z,18.17
2022-12-14T09:57:16.600Z,18.19
2022-12-14T09:59:42.829Z,18.22
2022-12-14T10:02:37.306Z,18.25
2022-12-14T10:04:55.278Z,18.27
2022-12-14T10:07:21.465Z,18.29
2022-12-14T10:09:47.685Z,18.29
2022-12-14T10:12:13.924Z,18.28
2022-12-14T10:14:44.335Z,18.26
2022-12-14T10:17:10.917Z,18.22
2022-12-14T10:19:37.187Z,18.22
2022-12-14T10:22:03.421Z,18.21
2022-12-14T10:24:29.636Z,18.22
2022-12-14T10:26:55.868Z,18.23
2022-12-14T10:29:22.044Z,18.25
2022-12-14T10:31:48.332Z,18.26
2022-12-14T10:34:14.547Z,18.27
2022-12-14T10:36:40.788Z,18.28
2022-12-14T10:39:07.018Z,18.29
2022-12-14T10:41:33.201Z,18.30
2022-12-14T10:43:59.394Z,18.32
2022-12-14T10:46:25.581Z,18.33
2022-12-14T10:48:51.802Z,18.32
2022-12-14T10:51:18.054Z,18.34
2022-12-14T10:53:44.256Z,18.35
2022-12-14T10:56:10.529Z,18.37
2022-12-14T10:58:36.758Z,18.37
2022-12-14T11:01:03.043Z,18.36
2022-12-14T11:03:29.432Z,18.37
2022-12-14T11:05:55.723Z,18.40
2022-12-14T11:08:21.920Z,18.41
2022-12-14T11:10:48.180Z,18.42
2022-12-14T11:13:14.367Z,18.42
2022-12-14T11:15:40.616Z,18.45
2022-12-14T11:18:06.997Z,18.46
2022-12-14T11:20:33.298Z,18.48
2022-12-14T11:22:59.638Z,18.49
2022-12-14T11:25:25.814Z,18.52
2022-12-14T11:27:52.045Z,18.53
2022-12-14T11:30:18.243Z,18.56
2022-12-14T11:32:44.509Z,18.58
2022-12-14T11:35:10.719Z,18.59
2022-12-14T11:37:36.972Z,18.59
2022-12-14T11:40:03.307Z,18.62
2022-12-14T11:42:29.515Z,18.62
2022-12-14T11:44:55.740Z,18.62
2022-12-14T11:47:21.942Z,18.63
2022-12-14T11:49:48.142Z,18.63
2022-12-14T11:52:14.425Z,18.64
2022-12-14T11:54:40.654Z,18.66
2022-12-14T11:57:06.903Z,18.67
2022-12-14T11:59:33.111Z,18.67
2022-12-14T12:01:59.457Z,18.68
2022-12-14T12:04:25.750Z,18.69
2022-12-14T12:06:51.945Z,18.72
2022-12-14T12:09:18.112Z,18.76
2022-12-14T12:11:44.336Z,18.78
2022-12-14T12:14:10.490Z,18.80
2022-12-14T12:16:36.824Z,18.82
2022-12-14T12:19:07.883Z,18.80
2022-12-14T12:21:38.740Z,18.77
2022-12-14T12:24:05.038Z,18.74
2022-12-14T12:26:31.286Z,18.74
2022-12-14T12:28:57.448Z,18.74
2022-12-14T12:31:23.886Z,18.73
2022-12-14T12:33:50.129Z,18.73
2022-12-14T12:36:21.895Z,18.75
2022-12-14T12:38:50.401Z,18.77
2022-12-14T12:41:16.652Z,18.79
2022-12-14T12:43:42.908Z,18.80
2022-12-14T12:46:16.558Z,18.83
2022-12-14T12:48:42.978Z,18.84
2022-12-14T12:51:09.176Z,18.86
2022-12-14T12:53:35.448Z,18.91
2022-12-14T12:56:01.747Z,18.95
2022-12-14T12:58:28.288Z,18.98
2022-12-14T13:00:55.012Z,19.04
2022-12-14T13:03:21.296Z,19.26
2022-12-14T13:05:48.643Z,19.41
2022-12-14T13:08:15.356Z,19.68
2022-12-14T13:10:50.566Z,20.29
2022-12-14T13:13:27.702Z,21.06
2022-12-14T13:15:53.991Z,21.51
2022-12-14T13:18:41.191Z,21.74
2022-12-14T13:21:06.569Z,21.88
2022-12-14T13:23:48.098Z,21.55
2022-12-14T13:26:28.127Z,20.62
2022-12-14T13:29:00.532Z,20.38
2022-12-14T13:31:26.764Z,20.62
2022-12-14T13:33:53.055Z,21.54
2022-12-14T13:36:19.266Z,22.01
2022-12-14T13:38:45.451Z,21.95
2022-12-14T13:41:11.738Z,21.49
2022-12-14T13:43:37.918Z,21.04
2022-12-14T13:46:04.141Z,20.80
2022-12-14T13:48:30.643Z,20.74
2022-12-14T13:51:01.506Z,20.56
2022-12-14T13:53:28.713Z,20.38
2022-12-14T13:55:54.970Z,20.25
2022-12-14T13:58:21.261Z,20.17
2022-12-14T14:00:47.591Z,20.12
2022-12-14T14:03:14.063Z,20.09
2022-12-14T14:05:40.302Z,20.05
2022-12-14T14:08:06.489Z,20.03
2022-12-14T14:10:32.662Z,20.04
2022-12-14T14:12:58.857Z,20.02
2022-12-14T14:15:26.441Z,20.00
2022-12-14T14:17:52.835Z,19.98
2022-12-14T14:20:19.028Z,19.95
2022-12-14T14:22:45.243Z,19.92
2022-12-14T14:25:11.456Z,19.90
2022-12-14T14:27:37.701Z,19.85
2022-12-14T14:30:04.080Z,19.83
2022-12-14T14:32:30.398Z,19.79
2022-12-14T14:34:56.653Z,19.76
2022-12-14T14:37:22.829Z,19.73
2022-12-14T14:40:00.697Z,19.71
2022-12-14T14:42:33.731Z,19.69
2022-12-14T14:45:00.001Z,19.66
2022-12-14T14:47:26.350Z,19.63
2022-12-14T14:49:52.771Z,19.59
2022-12-14T14:52:18.968Z,19.55
2022-12-14T14:57:31.360Z,19.49
2022-12-14T14:59:57.586Z,19.45
2022-12-14T15:02:23.794Z,19.43
2022-12-14T15:04:51.529Z,19.39
2022-12-14T15:07:17.952Z,19.36
2022-12-14T15:09:44.205Z,19.33
2022-12-14T15:12:10.375Z,19.27
2022-12-14T15:14:36.543Z,19.20
2022-12-14T15:17:02.787Z,19.14
2022-12-14T15:19:28.945Z,19.07
2022-12-14T15:21:55.190Z,19.03
2022-12-14T15:24:21.392Z,19.01
2022-12-14T15:26:47.645Z,18.98
2022-12-14T15:29:13.845Z,18.95
2022-12-14T15:31:40.269Z,18.94
2022-12-14T15:34:06.537Z,18.93
2022-12-14T15:36:32.758Z,18.91
2022-12-14T15:38:58.969Z,18.90
2022-12-14T15:41:25.277Z,18.88
2022-12-14T15:43:56.448Z,18.87
2022-12-14T15:46:24.378Z,18.85
2022-12-14T15:48:50.702Z,18.83
2022-12-14T15:51:16.896Z,18.81
2022-12-14T15:53:43.115Z,18.80
2022-12-14T15:56:16.704Z,18.79
2022-12-14T15:58:42.924Z,18.77
2022-12-14T16:01:09.206Z,18.75
2022-12-14T16:03:35.514Z,18.73
2022-12-14T16:06:01.728Z,18.72
2022-12-14T16:08:27.949Z,18.71
2022-12-14T16:10:54.166Z,18.70
2022-12-14T16:13:20.401Z,18.68
2022-12-14T16:15:46.630Z,18.68
2022-12-14T16:18:15.650Z,18.69
2022-12-14T16:20:41.964Z,18.70
2022-12-14T16:23:08.165Z,18.70
2022-12-14T16:25:34.396Z,18.70
2022-12-14T16:28:00.573Z,18.69
2022-12-14T16:30:26.866Z,18.69
2022-12-14T16:32:53.287Z,18.68
2022-12-14T16:35:20.692Z,18.69
2022-12-14T16:37:46.927Z,18.68
2022-12-14T16:40:16.385Z,18.66
2022-12-14T16:42:42.788Z,18.64
2022-12-14T16:45:08.982Z,18.65
2022-12-14T16:47:35.164Z,18.65
2022-12-14T16:50:01.372Z,18.63
2022-12-14T16:52:27.563Z,18.60
2022-12-14T16:54:53.778Z,18.62
2022-12-14T16:57:20.390Z,18.61
2022-12-14T16:59:46.822Z,18.60
2022-12-14T17:02:17.941Z,18.60
2022-12-14T17:04:44.472Z,18.60
2022-12-14T17:07:10.747Z,18.60
2022-12-14T17:09:36.939Z,18.57
2022-12-14T17:12:03.234Z,18.57
2022-12-14T17:14:29.456Z,18.57
2022-12-14T17:16:55.779Z,18.57
2022-12-14T17:19:22.044Z,18.54
2022-12-14T17:21:48.328Z,18.52
2022-12-14T17:24:14.702Z,18.51
2022-12-14T17:26:40.918Z,18.49
2022-12-14T17:29:07.233Z,18.47
2022-12-14T17:31:33.533Z,18.45
2022-12-14T17:33:59.830Z,18.43
2022-12-14T17:36:26.037Z,18.44
2022-12-14T17:38:52.297Z,18.46
2022-12-14T17:41:18.503Z,18.44
2022-12-14T17:43:49.894Z,18.43
2022-12-14T17:46:20.239Z,18.42
2022-12-14T17:48:46.502Z,18.40
2022-12-14T17:51:12.915Z,18.39
2022-12-14T17:53:39.152Z,18.38
2022-12-14T17:56:05.373Z,18.37
2022-12-14T17:58:31.643Z,18.38
2022-12-14T18:00:57.872Z,18.35
2022-12-14T18:03:24.135Z,18.33
2022-12-14T18:05:50.552Z,18.32
2022-12-14T18:08:16.805Z,18.29
2022-12-14T18:10:43.086Z,18.28
2022-12-14T18:13:09.366Z,18.27
2022-12-14T18:15:35.632Z,18.26
2022-12-14T18:18:01.851Z,18.25
2022-12-14T18:20:28.067Z,18.24
2022-12-14T18:22:54.268Z,18.22
2022-12-14T18:25:20.468Z,18.18
2022-12-14T18:27:46.710Z,18.10
2022-12-14T18:30:14.010Z,18.01
2022-12-14T18:32:40.228Z,17.89
2022-12-14T18:35:06.414Z,17.79
2022-12-14T18:37:33.043Z,17.70
2022-12-14T18:39:59.346Z,17.62
2022-12-14T18:42:25.519Z,17.53
2022-12-14T18:44:51.702Z,17.48
2022-12-14T18:47:40.788Z,17.45
2022-12-14T18:50:04.086Z,17.48
2022-12-14T18:52:30.308Z,17.47
2022-12-14T18:54:56.465Z,17.41
2022-12-14T18:57:22.676Z,17.35
2022-12-14T18:59:48.886Z,17.28
2022-12-14T19:02:15.299Z,17.19
2022-12-14T19:04:41.587Z,17.11
2022-12-14T19:07:07.770Z,17.04
2022-12-14T19:09:33.921Z,17.00
2022-12-14T19:12:00.089Z,17.03
2022-12-14T19:14:26.249Z,17.08
2022-12-14T19:16:52.453Z,17.15
2022-12-14T19:19:22.805Z,17.20
2022-12-14T19:21:49.846Z,17.24
2022-12-14T19:24:16.072Z,17.31
2022-12-14T19:26:42.303Z,17.37
2022-12-14T19:29:08.508Z,17.42
2022-12-14T19:31:34.732Z,17.48
2022-12-14T19:34:00.945Z,17.56
2022-12-14T19:36:27.256Z,17.62
2022-12-14T19:38:53.568Z,17.71
2022-12-14T19:41:19.835Z,17.78
2022-12-14T19:43:46.099Z,17.74
2022-12-14T19:46:12.383Z,17.88
2022-12-14T19:48:38.625Z,17.95
2022-12-14T19:51:04.891Z,17.99
2022-12-14T19:53:31.291Z,18.03
2022-12-14T19:55:57.818Z,18.08
2022-12-14T19:58:24.067Z,18.12
2022-12-14T20:00:50.242Z,18.13
2022-12-14T20:03:16.598Z,18.13
2022-12-14T20:05:42.960Z,18.14
2022-12-14T20:08:09.152Z,18.17
2022-12-14T20:10:35.348Z,18.19
2022-12-14T20:13:01.567Z,18.21
2022-12-14T20:15:27.754Z,18.22
2022-12-14T20:17:53.941Z,18.23
2022-12-14T20:20:20.127Z,18.23
2022-12-14T20:22:46.314Z,18.25
2022-12-14T20:25:12.512Z,18.26
2022-12-14T20:27:40.909Z,18.23
2022-12-14T20:30:07.403Z,18.22
2022-12-14T20:32:33.606Z,18.22
2022-12-14T20:34:59.856Z,18.21
2022-12-14T20:37:26.054Z,18.18
2022-12-14T20:39:52.292Z,18.12
2022-12-14T20:42:18.509Z,18.05
2022-12-14T20:44:44.724Z,17.97
2022-12-14T20:47:15.762Z,17.95
2022-12-14T20:49:42.031Z,17.93
2022-12-14T20:52:08.217Z,17.91
2022-12-14T20:54:34.413Z,17.89
2022-12-14T20:57:00.590Z,17.89
2022-12-14T20:59:26.787Z,17.89
2022-12-14T21:01:56.328Z,17.87
2022-12-14T21:04:23.060Z,17.86
2022-12-14T21:06:49.235Z,17.87
2022-12-14T21:09:15.443Z,17.87
2022-12-14T21:11:41.818Z,17.85
2022-12-14T21:14:08.038Z,17.83
2022-12-14T21:16:34.277Z,17.85
2022-12-14T21:19:00.546Z,17.86
2022-12-14T21:21:26.736Z,17.87
2022-12-14T21:23:52.919Z,17.86
2022-12-14T21:26:19.089Z,17.85
2022-12-14T21:28:45.328Z,17.83
2022-12-14T21:31:11.628Z,17.84
2022-12-14T21:33:37.854Z,17.83
2022-12-14T21:36:04.229Z,17.82
2022-12-14T21:38:30.411Z,17.82
2022-12-14T21:40:56.607Z,17.82
2022-12-14T21:43:22.820Z,17.81
2022-12-14T21:45:49.063Z,17.82
2022-12-14T21:48:15.229Z,17.81
2022-12-14T21:50:41.436Z,17.82
2022-12-14T21:53:07.663Z,17.84
2022-12-14T21:55:33.851Z,17.83
2022-12-14T21:58:00.172Z,17.82
2022-12-14T22:00:26.370Z,17.85
2022-12-14T22:02:52.793Z,17.87
2022-12-14T22:05:19.062Z,17.86
2022-12-14T22:07:45.278Z,17.86
2022-12-14T22:10:11.493Z,17.87
2022-12-14T22:12:37.689Z,17.87
2022-12-14T22:15:04.009Z,17.88
2022-12-14T22:17:30.184Z,17.88
2022-12-14T22:19:57.516Z,17.88
2022-12-14T22:22:23.775Z,17.88
2022-12-14T22:24:50.012Z,17.87
2022-12-14T22:27:16.227Z,17.87
2022-12-14T22:29:42.430Z,17.86
2022-12-14T22:32:08.826Z,17.85
2022-12-14T22:34:35.098Z,17.84
2022-12-14T22:37:01.290Z,17.84
2022-12-14T22:39:27.475Z,17.85
2022-12-14T22:41:53.676Z,17.83
2022-12-14T22:44:19.949Z,17.84
2022-12-14T22:46:46.147Z,17.83
2022-12-14T22:49:12.339Z,17.83
2022-12-14T22:51:38.549Z,17.83
2022-12-14T22:54:04.705Z,17.83
2022-12-14T22:56:30.869Z,17.82
2022-12-14T22:58:57.085Z,17.82
2022-12-14T23:01:23.402Z,17.83
2022-12-14T23:03:49.781Z,17.83
2022-12-14T23:06:16.063Z,17.83
2022-12-14T23:08:42.247Z,17.85
2022-12-14T23:11:08.627Z,17.85
2022-12-14T23:13:34.812Z,17.85
2022-12-14T23:16:01.069Z,17.83
2022-12-14T23:18:27.273Z,17.83
2022-12-14T23:20:53.549Z,17.84
2022-12-14T23:23:19.783Z,17.85
2022-12-14T23:25:45.982Z,17.82
2022-12-14T23:28:12.170Z,17.83
2022-12-14T23:30:38.466Z,17.82
2022-12-14T23:33:04.752Z,17.82
2022-12-14T23:35:30.998Z,17.81
2022-12-14T23:37:57.201Z,17.80
2022-12-14T23:40:23.421Z,17.82
2022-12-14T23:42:49.615Z,17.81
2022-12-14T23:45:15.832Z,17.81
2022-12-14T23:47:42.014Z,17.82
2022-12-14T23:50:08.195Z,17.83
2022-12-14T23:52:34.399Z,17.82
2022-12-14T23:55:01.019Z,17.81
2022-12-14T23:57:27.225Z,17.81
2022-12-14T23:59:53.422Z,17.83
